createdAt,value
2022-09-06T00:01:11.777Z,22.86
2022-09-06T00:06:43.494Z,22.82
2022-09-06T00:12:19.565Z,22.75
2022-09-06T00:17:51.292Z,22.62
2022-09-06T00:23:22.975Z,22.67
2022-09-06T00:28:54.749Z,22.7
2022-09-06T00:34:26.443Z,22.58
2022-09-06T00:39:58.251Z,22.53
2022-09-06T00:45:29.941Z,22.41
2022-09-06T00:51:01.661Z,22.34
2022-09-06T00:56:33.341Z,22.5
2022-09-06T01:02:05.166Z,22.51
2022-09-06T01:07:36.809Z,22.34
2022-09-06T01:13:12.937Z,22.24
2022-09-06T01:18:44.585Z,22.23
2022-09-06T01:24:16.329Z,22.23
2022-09-06T01:29:48.061Z,22.24
2022-09-06T01:35:19.781Z,22.19
2022-09-06T01:40:51.525Z,22.23
2022-09-06T01:46:23.275Z,22.24
2022-09-06T01:51:54.953Z,22.23
2022-09-06T01:57:26.673Z,22.14
2022-09-06T02:02:58.426Z,22.18
2022-09-06T02:08:30.149Z,22.17
2022-09-06T02:14:06.254Z,21.51
2022-09-06T02:19:38.018Z,21.41
2022-09-06T02:25:09.762Z,21.38
2022-09-06T02:30:41.546Z,21.55
2022-09-06T02:36:13.144Z,21.53
2022-09-06T02:41:44.925Z,21.43
2022-09-06T02:47:16.609Z,21.49
2022-09-06T02:52:48.293Z,21.37
2022-09-06T02:58:20.065Z,21.53
2022-09-06T03:03:51.955Z,21.55
2022-09-06T03:09:23.529Z,21.39
2022-09-06T03:14:59.605Z,21.42
2022-09-06T03:20:35.089Z,20.91
2022-09-06T03:26:03.081Z,21.18
2022-09-06T03:31:34.816Z,21.18
2022-09-06T03:37:06.528Z,21.06
2022-09-06T03:42:38.245Z,21.05
2022-09-06T03:48:09.961Z,21.04
2022-09-06T03:53:41.692Z,21.06
2022-09-06T03:59:13.396Z,21.0
2022-09-06T04:04:45.169Z,21.03
2022-09-06T04:10:16.908Z,20.99
2022-09-06T04:15:52.965Z,20.99
2022-09-06T04:21:25.097Z,20.91
2022-09-06T04:26:56.413Z,20.84
2022-09-06T04:32:28.229Z,20.95
2022-09-06T04:37:59.910Z,20.98
2022-09-06T04:43:31.651Z,20.8
2022-09-06T04:49:03.326Z,20.75
2022-09-06T04:54:35.041Z,20.93
2022-09-06T05:00:06.846Z,20.95
2022-09-06T05:16:46.369Z,20.76
2022-09-06T05:22:17.986Z,20.83
2022-09-06T05:27:49.909Z,20.63
2022-09-06T05:33:21.502Z,20.65
2022-09-06T05:38:53.238Z,20.72
2022-09-06T05:44:24.992Z,20.71
2022-09-06T05:49:56.717Z,20.62
2022-09-06T05:55:28.398Z,20.89
2022-09-06T06:01:00.149Z,20.82
2022-09-06T06:06:31.839Z,20.73
2022-09-06T06:12:03.618Z,20.86
2022-09-06T06:17:39.666Z,20.81
2022-09-06T06:23:11.436Z,21.0
2022-09-06T06:28:43.084Z,20.9
2022-09-06T06:34:15.007Z,21.05
2022-09-06T06:39:46.698Z,21.02
2022-09-06T06:45:18.346Z,21.3
2022-09-06T06:50:50.057Z,21.34
2022-09-06T06:56:21.834Z,21.13
2022-09-06T07:01:53.683Z,21.64
2022-09-06T07:07:33.459Z,21.78
2022-09-06T07:12:56.949Z,21.63
2022-09-06T07:18:35.035Z,21.69
2022-09-06T07:24:07.526Z,21.89
2022-09-06T07:24:56.633Z,21.87
2022-09-06T07:30:28.383Z,21.85
2022-09-06T07:36:00.128Z,22.18
2022-09-06T07:41:32.019Z,22.55
2022-09-06T07:58:07.026Z,23.51
2022-09-06T08:03:38.709Z,23.89
2022-09-06T08:09:10.539Z,24.25
2022-09-06T08:14:42.181Z,24.01
2022-09-06T08:20:13.916Z,24.48
2022-09-06T08:25:50.087Z,24.75
2022-09-06T08:31:21.780Z,25.18
2022-09-06T08:36:53.681Z,25.34
2022-09-06T08:42:25.181Z,25.52
2022-09-06T08:47:56.903Z,25.72
2022-09-06T08:53:28.725Z,26.29
2022-09-06T08:59:00.325Z,26.49
2022-09-06T09:04:32.102Z,26.75
2022-09-06T09:10:03.869Z,27.12
2022-09-06T09:15:39.646Z,27.32
2022-09-06T09:21:07.293Z,27.09
2022-09-06T09:26:45.549Z,27.15
2022-09-06T09:32:17.093Z,27.17
2022-09-06T09:37:49.789Z,27.51
2022-09-06T09:43:20.554Z,27.76
2022-09-06T09:48:52.257Z,27.8
2022-09-06T09:54:24.029Z,27.9
2022-09-06T09:59:55.681Z,28.0
2022-09-06T10:05:27.400Z,28.13
2022-09-06T10:10:59.177Z,28.47
2022-09-06T10:16:30.917Z,28.83
2022-09-06T10:22:02.594Z,28.86
2022-09-06T10:27:42.617Z,28.94
2022-09-06T10:33:10.505Z,28.77
2022-09-06T10:38:42.217Z,28.81
2022-09-06T10:44:13.852Z,28.76
2022-09-06T10:49:45.595Z,28.51
2022-09-06T10:55:17.329Z,28.88
2022-09-06T11:00:49.259Z,28.55
2022-09-06T11:06:21.727Z,28.72
2022-09-06T11:11:52.570Z,28.45
2022-09-06T11:17:24.290Z,28.37
2022-09-06T11:22:55.921Z,28.64
2022-09-06T11:28:32.034Z,29.02
2022-09-06T11:34:03.794Z,29.35
2022-09-06T11:45:07.205Z,29.24
2022-09-06T11:50:38.929Z,29.09
2022-09-06T11:56:10.628Z,29.27
2022-09-06T12:01:42.382Z,29.27
2022-09-06T12:07:14.103Z,29.05
2022-09-06T12:12:45.872Z,28.52
2022-09-06T12:18:17.605Z,28.16
2022-09-06T12:23:49.373Z,28.13
2022-09-06T12:29:27.353Z,28.16
2022-09-06T12:40:30.818Z,28.05
2022-09-06T12:46:02.585Z,28.07
2022-09-06T12:51:34.307Z,28.2
2022-09-06T12:57:06.042Z,28.38
2022-09-06T13:02:37.772Z,28.66
2022-09-06T13:08:09.444Z,28.55
2022-09-06T13:13:41.184Z,28.6
2022-09-06T13:19:12.897Z,28.62
2022-09-06T13:24:46.760Z,28.63
2022-09-06T13:30:20.717Z,28.41
2022-09-06T13:35:52.446Z,28.08
2022-09-06T13:41:24.229Z,27.52
2022-09-06T13:46:55.930Z,27.66
2022-09-06T13:52:27.594Z,27.26
2022-09-06T13:57:59.315Z,27.47
2022-09-06T14:03:31.095Z,27.45
2022-09-06T14:09:07.216Z,27.49
2022-09-06T14:14:34.526Z,27.52
2022-09-06T14:20:06.258Z,27.44
2022-09-06T14:25:38.027Z,27.31
2022-09-06T14:31:14.117Z,27.22
2022-09-06T14:36:45.772Z,26.62
2022-09-06T14:42:17.567Z,26.74
2022-09-06T14:47:49.318Z,26.65
2022-09-06T14:53:39.184Z,26.27
2022-09-06T14:58:52.705Z,26.12
2022-09-06T15:04:24.439Z,25.87
2022-09-06T15:09:56.224Z,25.87
2022-09-06T15:15:27.909Z,25.93
2022-09-06T15:20:59.761Z,25.89
2022-09-06T15:26:31.303Z,25.8
2022-09-06T15:32:09.429Z,25.76
2022-09-06T15:37:41.163Z,25.83
2022-09-06T15:43:13.216Z,25.77
2022-09-06T15:48:44.672Z,26.08
2022-09-06T15:54:16.400Z,26.33
2022-09-06T15:59:48.076Z,26.31
2022-09-06T16:05:19.950Z,26.31
2022-09-06T16:06:27.626Z,26.31
2022-09-06T16:10:51.686Z,26.23
2022-09-06T16:16:23.309Z,26.01
2022-09-06T16:21:54.919Z,25.99
2022-09-06T16:27:26.631Z,25.95
2022-09-06T16:33:02.751Z,26.19
2022-09-06T16:38:34.537Z,26.32
2022-09-06T16:44:06.253Z,26.49
2022-09-06T16:49:37.900Z,26.43
2022-09-06T16:55:09.631Z,26.62
2022-09-06T17:00:41.407Z,26.6
2022-09-06T17:06:13.177Z,26.52
2022-09-06T17:11:44.808Z,26.36
2022-09-06T17:17:16.541Z,26.23
2022-09-06T17:22:48.330Z,26.18
2022-09-06T17:28:20.005Z,26.07
2022-09-06T17:33:56.138Z,25.97
2022-09-06T17:39:27.903Z,25.8
2022-09-06T17:44:59.537Z,25.62
2022-09-06T17:50:31.390Z,25.49
2022-09-06T17:56:02.996Z,25.36
2022-09-06T18:01:34.732Z,25.16
2022-09-06T18:07:06.439Z,24.99
2022-09-06T18:12:38.278Z,24.9
2022-09-06T18:18:09.905Z,24.74
2022-09-06T18:23:41.697Z,24.57
2022-09-06T18:29:13.369Z,24.53
2022-09-06T18:34:51.386Z,24.47
2022-09-06T18:40:23.142Z,24.44
2022-09-06T18:45:54.939Z,24.4
2022-09-06T18:51:26.581Z,24.28
2022-09-06T18:56:58.278Z,24.15
2022-09-06T19:02:30.048Z,24.05
2022-09-06T19:08:01.837Z,23.92
2022-09-06T19:13:33.537Z,23.86
2022-09-06T19:19:05.230Z,23.76
2022-09-06T19:24:37.110Z,23.67
2022-09-06T19:30:08.642Z,23.6
2022-09-06T19:36:01.116Z,23.52
2022-09-06T19:41:16.541Z,23.53
2022-09-06T19:46:48.183Z,23.56
2022-09-06T19:52:19.955Z,23.63
2022-09-06T19:57:51.625Z,23.6
2022-09-06T20:03:23.362Z,23.58
2022-09-06T20:08:55.261Z,23.48
2022-09-06T20:14:26.802Z,23.44
2022-09-06T20:19:58.523Z,23.37
2022-09-06T20:25:30.250Z,23.38
2022-09-06T20:31:01.992Z,23.36
2022-09-06T20:36:38.066Z,23.44
2022-09-06T20:42:09.798Z,23.52
2022-09-06T20:47:41.546Z,23.54
2022-09-06T20:53:13.274Z,23.53
2022-09-06T20:58:44.970Z,23.39
2022-09-06T21:04:16.685Z,23.38
2022-09-06T21:09:48.382Z,23.56
2022-09-06T21:15:20.210Z,23.51
2022-09-06T21:20:51.871Z,23.6
2022-09-06T21:26:23.571Z,23.61
2022-09-06T21:31:55.339Z,23.46
2022-09-06T21:37:33.387Z,23.41
2022-09-06T21:43:05.110Z,23.38
2022-09-06T21:48:36.842Z,23.12
2022-09-06T21:54:08.625Z,23.0
2022-09-06T21:59:40.246Z,23.04
2022-09-06T22:05:12.042Z,22.85
2022-09-06T22:10:43.737Z,22.96
2022-09-06T22:16:15.570Z,22.76
2022-09-06T22:21:47.206Z,22.7
2022-09-06T22:27:18.897Z,22.86
2022-09-06T22:32:50.597Z,22.75
2022-09-06T22:38:26.720Z,22.82
2022-09-06T22:43:58.385Z,22.76
2022-09-06T22:49:30.218Z,22.77
2022-09-06T22:55:01.890Z,22.63
2022-09-06T23:00:33.630Z,22.44
2022-09-06T23:06:05.382Z,22.35
2022-09-06T23:11:37.066Z,22.52
2022-09-06T23:17:08.898Z,22.49
2022-09-06T23:22:40.521Z,22.53
2022-09-06T23:28:12.415Z,22.57
2022-09-06T23:33:43.965Z,22.42
2022-09-06T23:39:22.383Z,22.55
2022-09-06T23:44:53.825Z,22.04
2022-09-06T23:50:25.529Z,22.15
2022-09-06T23:55:57.316Z,22.19
